Mansfield Lahm Regional Airport Mansfield US
ICAO: KMFD
IATA: MFD
Category: Medium
Scheduled Services: No

Elevation: 1297 ft
TransAlt. 18000 ft.

Airport Communications:
APP/DEP:124.2
ATIS:125.3
CTAF:119.8
GND:121.8
HERC COMD POST:29.75
CLEVELAND RDO:122.6
TWR:119.8
UNICOM:122.95

KMFD Zoom In..

If you have problems with the map follow the link
https://www.worldairports.se/pages/airport.php?
ICAO=KMFD

Runways:

(A) RW 05 length 6800 ft width 150 ft
---- / hdg 53

(B) RW 14 length 9001 ft width 150 ft
---- / hdg 143

(C) RW 23 length 6800 ft width 150 ft
---- / hdg 233

(D) RW 32 length 9001 ft width 150 ft
ILS 110.50 / hdg 323

Location; KMFD
Day. 19 / Time. 16.18 Zulu
* Altimeter: 30.10
* Temperature: -11° c. -12.2°f.
* Wind from: 260° Speed 13 kn with Gusts up to 20 kn.
Dewpoint: -14° c.
Visibility: 2 Statute Miles.
Clouds: Few 1400 ft.
Clouds: Overcast 2200 ft.
Conditions: Light Snow.

KMFD 191618Z 26013G20KT 2SM -SN FEW014 OVC022 M11/M14 A3010 RMK AO2 P0000 T11061139


Wind From 260°
Speed 13 kn.

 
 
jpsmedia worldairports.se 2020   terms of use